sensor_id;sensor_type;location;lat;lon;timestamp;temperature;humidity
25923;DHT22;13725;51.170;4.442;2023-02-18T00:00:16;12.10;99.90
25923;DHT22;13725;51.170;4.442;2023-02-18T00:02:43;12.00;99.90
25923;DHT22;13725;51.170;4.442;2023-02-18T00:05:09;12.00;99.90
25923;DHT22;13725;51.170;4.442;2023-02-18T00:07:36;12.00;99.90
25923;DHT22;13725;51.170;4.442;2023-02-18T00:10:03;11.90;99.90
25923;DHT22;13725;51.170;4.442;2023-02-18T00:12:30;11.80;99.90
25923;DHT22;13725;51.170;4.442;2023-02-18T00:14:56;11.80;99.90
25923;DHT22;13725;51.170;4.442;2023-02-18T00:17:22;12.00;99.90
25923;DHT22;13725;51.170;4.442;2023-02-18T00:19:48;12.00;99.90
25923;DHT22;13725;51.170;4.442;2023-02-18T00:22:14;12.00;99.90
25923;DHT22;13725;51.170;4.442;2023-02-18T00:24:39;11.90;99.90
25923;DHT22;13725;51.170;4.442;2023-02-18T00:27:05;11.90;99.90
25923;DHT22;13725;51.170;4.442;2023-02-18T00:29:31;11.90;99.90
25923;DHT22;13725;51.170;4.442;2023-02-18T00:31:57;11.90;99.90
25923;DHT22;13725;51.170;4.442;2023-02-18T00:34:22;11.90;99.90
25923;DHT22;13725;51.170;4.442;2023-02-18T00:36:48;12.00;99.90
25923;DHT22;13725;51.170;4.442;2023-02-18T00:39:14;12.00;99.90
25923;DHT22;13725;51.170;4.442;2023-02-18T00:41:40;11.90;99.90
25923;DHT22;13725;51.170;4.442;2023-02-18T00:44:06;11.90;99.90
25923;DHT22;13725;51.170;4.442;2023-02-18T00:46:33;12.00;99.90
25923;DHT22;13725;51.170;4.442;2023-02-18T00:49:00;11.90;99.90
25923;DHT22;13725;51.170;4.442;2023-02-18T00:51:25;11.90;99.90
25923;DHT22;13725;51.170;4.442;2023-02-18T00:53:51;11.90;99.90
25923;DHT22;13725;51.170;4.442;2023-02-18T00:56:17;12.00;99.90
25923;DHT22;13725;51.170;4.442;2023-02-18T00:58:43;11.90;99.90
25923;DHT22;13725;51.170;4.442;2023-02-18T01:01:10;11.80;99.90
25923;DHT22;13725;51.170;4.442;2023-02-18T01:03:37;11.80;99.90
25923;DHT22;13725;51.170;4.442;2023-02-18T01:06:04;11.90;99.90
25923;DHT22;13725;51.170;4.442;2023-02-18T01:08:31;12.00;99.90
25923;DHT22;13725;51.170;4.442;2023-02-18T01:10:58;12.00;99.90
25923;DHT22;13725;51.170;4.442;2023-02-18T01:13:25;11.90;99.90
25923;DHT22;13725;51.170;4.442;2023-02-18T01:15:51;11.90;99.90
25923;DHT22;13725;51.170;4.442;2023-02-18T01:18:17;11.90;99.90
25923;DHT22;13725;51.170;4.442;2023-02-18T01:20:43;11.90;99.90
25923;DHT22;13725;51.170;4.442;2023-02-18T01:23:10;12.00;99.90
25923;DHT22;13725;51.170;4.442;2023-02-18T01:25:36;12.00;99.90
25923;DHT22;13725;51.170;4.442;2023-02-18T01:28:04;11.90;99.90
25923;DHT22;13725;51.170;4.442;2023-02-18T01:30:30;11.80;99.90
25923;DHT22;13725;51.170;4.442;2023-02-18T01:32:57;11.80;99.90
25923;DHT22;13725;51.170;4.442;2023-02-18T01:35:23;11.90;99.90
25923;DHT22;13725;51.170;4.442;2023-02-18T01:37:49;11.90;99.90
25923;DHT22;13725;51.170;4.442;2023-02-18T01:40:19;11.90;99.90
25923;DHT22;13725;51.170;4.442;2023-02-18T01:42:45;11.90;99.90
25923;DHT22;13725;51.170;4.442;2023-02-18T01:48:10;11.90;99.90
25923;DHT22;13725;51.170;4.442;2023-02-18T01:51:08;11.60;99.90
25923;DHT22;13725;51.170;4.442;2023-02-18T01:54:12;11.60;99.90
25923;DHT22;13725;51.170;4.442;2023-02-18T01:56:54;11.60;99.90
25923;DHT22;13725;51.170;4.442;2023-02-18T01:59:38;11.60;99.90
25923;DHT22;13725;51.170;4.442;2023-02-18T02:02:07;11.50;99.90
25923;DHT22;13725;51.170;4.442;2023-02-18T02:04:35;11.50;99.90
25923;DHT22;13725;51.170;4.442;2023-02-18T02:07:01;11.40;99.90
25923;DHT22;13725;51.170;4.442;2023-02-18T02:09:28;11.40;99.90
25923;DHT22;13725;51.170;4.442;2023-02-18T02:20:45;11.30;99.90
25923;DHT22;13725;51.170;4.442;2023-02-18T02:29:23;11.30;99.90
25923;DHT22;13725;51.170;4.442;2023-02-18T02:32:25;11.20;99.90
25923;DHT22;13725;51.170;4.442;2023-02-18T02:38:02;11.30;99.90
25923;DHT22;13725;51.170;4.442;2023-02-18T02:51:26;11.20;99.90
25923;DHT22;13725;51.170;4.442;2023-02-18T02:53:53;11.10;99.90
25923;DHT22;13725;51.170;4.442;2023-02-18T02:56:22;11.10;99.90
25923;DHT22;13725;51.170;4.442;2023-02-18T02:58:59;11.10;99.90
25923;DHT22;13725;51.170;4.442;2023-02-18T03:01:40;11.00;99.90
25923;DHT22;13725;51.170;4.442;2023-02-18T03:04:27;11.10;99.90
25923;DHT22;13725;51.170;4.442;2023-02-18T03:15:42;11.00;99.90
25923;DHT22;13725;51.170;4.442;2023-02-18T03:18:30;11.00;99.90
25923;DHT22;13725;51.170;4.442;2023-02-18T03:24:08;10.90;99.90
25923;DHT22;13725;51.170;4.442;2023-02-18T03:26:38;10.90;99.90
25923;DHT22;13725;51.170;4.442;2023-02-18T03:29:07;10.90;99.90
25923;DHT22;13725;51.170;4.442;2023-02-18T03:31:36;10.90;99.90
25923;DHT22;13725;51.170;4.442;2023-02-18T03:34:10;10.80;99.90
25923;DHT22;13725;51.170;4.442;2023-02-18T03:36:37;10.90;99.90
25923;DHT22;13725;51.170;4.442;2023-02-18T03:39:09;10.90;99.90
25923;DHT22;13725;51.170;4.442;2023-02-18T03:41:37;10.80;99.90
25923;DHT22;13725;51.170;4.442;2023-02-18T03:44:05;10.80;99.90
25923;DHT22;13725;51.170;4.442;2023-02-18T03:46:32;10.90;99.90
25923;DHT22;13725;51.170;4.442;2023-02-18T03:48:58;10.90;99.90
25923;DHT22;13725;51.170;4.442;2023-02-18T03:51:24;10.90;99.90
25923;DHT22;13725;51.170;4.442;2023-02-18T03:53:50;10.90;99.90
25923;DHT22;13725;51.170;4.442;2023-02-18T03:56:16;10.80;99.90
25923;DHT22;13725;51.170;4.442;2023-02-18T03:58:42;10.80;99.90
25923;DHT22;13725;51.170;4.442;2023-02-18T04:01:07;10.80;99.90
25923;DHT22;13725;51.170;4.442;2023-02-18T04:03:33;10.90;99.90
25923;DHT22;13725;51.170;4.442;2023-02-18T04:05:59;10.90;99.90
25923;DHT22;13725;51.170;4.442;2023-02-18T04:08:24;11.00;99.90
25923;DHT22;13725;51.170;4.442;2023-02-18T04:10:51;10.90;99.90
25923;DHT22;13725;51.170;4.442;2023-02-18T04:13:17;10.90;99.90
25923;DHT22;13725;51.170;4.442;2023-02-18T04:15:47;10.90;99.90
25923;DHT22;13725;51.170;4.442;2023-02-18T04:18:13;10.80;99.90
25923;DHT22;13725;51.170;4.442;2023-02-18T04:20:39;10.80;99.90
25923;DHT22;13725;51.170;4.442;2023-02-18T04:23:04;10.80;99.90
25923;DHT22;13725;51.170;4.442;2023-02-18T04:25:30;10.80;99.90
25923;DHT22;13725;51.170;4.442;2023-02-18T04:27:56;10.80;99.90
25923;DHT22;13725;51.170;4.442;2023-02-18T04:30:22;10.80;99.90
25923;DHT22;13725;51.170;4.442;2023-02-18T04:32:48;11.00;99.90
25923;DHT22;13725;51.170;4.442;2023-02-18T04:35:14;10.80;99.90
25923;DHT22;13725;51.170;4.442;2023-02-18T04:37:40;10.80;99.90
25923;DHT22;13725;51.170;4.442;2023-02-18T04:40:06;10.90;99.90
25923;DHT22;13725;51.170;4.442;2023-02-18T04:42:32;10.90;99.90
25923;DHT22;13725;51.170;4.442;2023-02-18T04:44:57;10.90;99.90
25923;DHT22;13725;51.170;4.442;2023-02-18T04:47:23;10.80;99.90
25923;DHT22;13725;51.170;4.442;2023-02-18T04:49:49;10.80;99.90
25923;DHT22;13725;51.170;4.442;2023-02-18T04:52:14;10.90;99.90
25923;DHT22;13725;51.170;4.442;2023-02-18T04:54:40;10.80;99.90
25923;DHT22;13725;51.170;4.442;2023-02-18T04:57:06;10.80;99.90
25923;DHT22;13725;51.170;4.442;2023-02-18T04:59:31;10.80;99.90
25923;DHT22;13725;51.170;4.442;2023-02-18T05:01:57;10.70;99.90
25923;DHT22;13725;51.170;4.442;2023-02-18T05:04:23;10.80;99.90
25923;DHT22;13725;51.170;4.442;2023-02-18T05:06:49;10.80;99.90
25923;DHT22;13725;51.170;4.442;2023-02-18T05:09:14;10.90;99.90
25923;DHT22;13725;51.170;4.442;2023-02-18T05:11:41;10.90;99.90
25923;DHT22;13725;51.170;4.442;2023-02-18T05:14:07;10.90;99.90
25923;DHT22;13725;51.170;4.442;2023-02-18T05:16:32;10.90;99.90
25923;DHT22;13725;51.170;4.442;2023-02-18T05:18:58;10.80;99.90
25923;DHT22;13725;51.170;4.442;2023-02-18T05:21:24;10.90;99.90
25923;DHT22;13725;51.170;4.442;2023-02-18T05:23:49;10.90;99.90
25923;DHT22;13725;51.170;4.442;2023-02-18T05:26:15;10.80;99.90
25923;DHT22;13725;51.170;4.442;2023-02-18T05:28:40;10.80;99.90
25923;DHT22;13725;51.170;4.442;2023-02-18T05:31:06;10.80;99.90
25923;DHT22;13725;51.170;4.442;2023-02-18T05:33:32;10.80;99.90
25923;DHT22;13725;51.170;4.442;2023-02-18T05:35:57;10.80;99.90
25923;DHT22;13725;51.170;4.442;2023-02-18T05:38:23;10.80;99.90
25923;DHT22;13725;51.170;4.442;2023-02-18T05:40:49;10.70;99.90
25923;DHT22;13725;51.170;4.442;2023-02-18T05:43:15;10.80;99.90
25923;DHT22;13725;51.170;4.442;2023-02-18T05:45:40;10.80;99.90
25923;DHT22;13725;51.170;4.442;2023-02-18T05:48:06;10.80;99.90
25923;DHT22;13725;51.170;4.442;2023-02-18T05:50:32;10.80;99.90
25923;DHT22;13725;51.170;4.442;2023-02-18T05:52:58;10.80;99.90
25923;DHT22;13725;51.170;4.442;2023-02-18T05:55:23;10.80;99.90
25923;DHT22;13725;51.170;4.442;2023-02-18T05:57:49;10.80;99.90
25923;DHT22;13725;51.170;4.442;2023-02-18T06:00:16;10.80;99.90
25923;DHT22;13725;51.170;4.442;2023-02-18T06:02:42;10.70;99.90
25923;DHT22;13725;51.170;4.442;2023-02-18T06:05:08;10.70;99.90
25923;DHT22;13725;51.170;4.442;2023-02-18T06:07:34;10.50;99.90
25923;DHT22;13725;51.170;4.442;2023-02-18T06:10:00;10.40;99.90
25923;DHT22;13725;51.170;4.442;2023-02-18T06:12:25;10.40;99.90
25923;DHT22;13725;51.170;4.442;2023-02-18T06:14:51;10.40;99.90
25923;DHT22;13725;51.170;4.442;2023-02-18T06:17:17;10.30;99.90
25923;DHT22;13725;51.170;4.442;2023-02-18T06:19:44;10.20;99.90
25923;DHT22;13725;51.170;4.442;2023-02-18T06:22:10;10.20;99.90
25923;DHT22;13725;51.170;4.442;2023-02-18T06:24:36;10.20;99.90
25923;DHT22;13725;51.170;4.442;2023-02-18T06:27:02;10.20;99.90
25923;DHT22;13725;51.170;4.442;2023-02-18T06:29:28;10.10;99.90
25923;DHT22;13725;51.170;4.442;2023-02-18T06:31:56;10.20;99.90
25923;DHT22;13725;51.170;4.442;2023-02-18T06:34:22;10.20;99.90
25923;DHT22;13725;51.170;4.442;2023-02-18T06:36:48;10.10;99.90
25923;DHT22;13725;51.170;4.442;2023-02-18T06:39:13;10.10;99.90
25923;DHT22;13725;51.170;4.442;2023-02-18T06:41:39;10.10;99.90
25923;DHT22;13725;51.170;4.442;2023-02-18T06:44:05;10.10;99.90
25923;DHT22;13725;51.170;4.442;2023-02-18T06:46:31;10.20;99.90
25923;DHT22;13725;51.170;4.442;2023-02-18T06:48:57;10.10;99.90
25923;DHT22;13725;51.170;4.442;2023-02-18T06:51:23;10.10;99.90
25923;DHT22;13725;51.170;4.442;2023-02-18T06:53:49;10.10;99.90
25923;DHT22;13725;51.170;4.442;2023-02-18T06:56:15;10.10;99.90
25923;DHT22;13725;51.170;4.442;2023-02-18T06:58:40;10.10;99.90
25923;DHT22;13725;51.170;4.442;2023-02-18T07:01:06;10.10;99.90
25923;DHT22;13725;51.170;4.442;2023-02-18T07:03:32;10.20;99.90
25923;DHT22;13725;51.170;4.442;2023-02-18T07:05:58;10.10;99.90
25923;DHT22;13725;51.170;4.442;2023-02-18T07:08:24;10.20;99.90
25923;DHT22;13725;51.170;4.442;2023-02-18T07:10:50;10.20;99.90
25923;DHT22;13725;51.170;4.442;2023-02-18T07:13:16;10.30;99.90
25923;DHT22;13725;51.170;4.442;2023-02-18T07:15:42;10.20;99.90
25923;DHT22;13725;51.170;4.442;2023-02-18T07:18:07;10.30;99.90
25923;DHT22;13725;51.170;4.442;2023-02-18T07:20:33;10.20;99.90
25923;DHT22;13725;51.170;4.442;2023-02-18T07:22:59;10.20;99.90
25923;DHT22;13725;51.170;4.442;2023-02-18T07:25:25;10.30;99.90
25923;DHT22;13725;51.170;4.442;2023-02-18T07:27:51;10.30;99.90
25923;DHT22;13725;51.170;4.442;2023-02-18T07:30:18;10.30;99.90
25923;DHT22;13725;51.170;4.442;2023-02-18T07:32:44;10.50;99.90
25923;DHT22;13725;51.170;4.442;2023-02-18T07:35:12;10.50;99.90
25923;DHT22;13725;51.170;4.442;2023-02-18T07:37:39;10.60;99.90
25923;DHT22;13725;51.170;4.442;2023-02-18T07:40:05;10.60;99.90
25923;DHT22;13725;51.170;4.442;2023-02-18T07:42:31;10.60;99.90
25923;DHT22;13725;51.170;4.442;2023-02-18T07:44:56;10.70;99.90
25923;DHT22;13725;51.170;4.442;2023-02-18T07:47:22;10.80;99.90
25923;DHT22;13725;51.170;4.442;2023-02-18T07:49:48;10.80;99.90
25923;DHT22;13725;51.170;4.442;2023-02-18T07:52:14;10.90;99.90
25923;DHT22;13725;51.170;4.442;2023-02-18T07:54:40;11.00;99.90
25923;DHT22;13725;51.170;4.442;2023-02-18T07:57:06;11.00;99.90
25923;DHT22;13725;51.170;4.442;2023-02-18T07:59:32;11.10;99.90
25923;DHT22;13725;51.170;4.442;2023-02-18T08:01:57;11.20;99.90
25923;DHT22;13725;51.170;4.442;2023-02-18T08:04:23;11.30;99.90
25923;DHT22;13725;51.170;4.442;2023-02-18T08:06:49;11.30;99.90
25923;DHT22;13725;51.170;4.442;2023-02-18T08:09:16;11.30;99.90
25923;DHT22;13725;51.170;4.442;2023-02-18T08:11:42;11.40;99.90
25923;DHT22;13725;51.170;4.442;2023-02-18T08:14:08;11.50;99.90
25923;DHT22;13725;51.170;4.442;2023-02-18T08:16:34;11.80;99.90
25923;DHT22;13725;51.170;4.442;2023-02-18T08:19:00;12.00;99.90
25923;DHT22;13725;51.170;4.442;2023-02-18T08:21:28;12.10;99.90
25923;DHT22;13725;51.170;4.442;2023-02-18T08:23:54;12.20;99.90
25923;DHT22;13725;51.170;4.442;2023-02-18T08:26:20;12.20;99.90
25923;DHT22;13725;51.170;4.442;2023-02-18T08:28:46;12.10;99.90
25923;DHT22;13725;51.170;4.442;2023-02-18T08:31:18;12.00;99.90
25923;DHT22;13725;51.170;4.442;2023-02-18T08:33:44;12.10;99.90
25923;DHT22;13725;51.170;4.442;2023-02-18T08:36:09;12.20;99.90
25923;DHT22;13725;51.170;4.442;2023-02-18T08:38:35;12.10;99.90
25923;DHT22;13725;51.170;4.442;2023-02-18T08:41:03;12.10;99.90
25923;DHT22;13725;51.170;4.442;2023-02-18T08:43:29;12.10;99.90
25923;DHT22;13725;51.170;4.442;2023-02-18T08:45:56;12.40;99.90
25923;DHT22;13725;51.170;4.442;2023-02-18T08:48:23;12.20;99.90
25923;DHT22;13725;51.170;4.442;2023-02-18T08:50:48;12.10;99.90
25923;DHT22;13725;51.170;4.442;2023-02-18T08:53:15;12.10;99.90
25923;DHT22;13725;51.170;4.442;2023-02-18T08:55:41;12.10;99.90
25923;DHT22;13725;51.170;4.442;2023-02-18T08:58:07;12.00;99.90
25923;DHT22;13725;51.170;4.442;2023-02-18T09:00:33;12.10;99.90
25923;DHT22;13725;51.170;4.442;2023-02-18T09:02:59;12.30;99.90
25923;DHT22;13725;51.170;4.442;2023-02-18T09:05:25;12.30;99.90
25923;DHT22;13725;51.170;4.442;2023-02-18T09:07:51;12.20;99.90
25923;DHT22;13725;51.170;4.442;2023-02-18T09:10:16;12.30;99.90
25923;DHT22;13725;51.170;4.442;2023-02-18T09:12:42;12.40;99.90
25923;DHT22;13725;51.170;4.442;2023-02-18T09:15:08;12.50;99.90
25923;DHT22;13725;51.170;4.442;2023-02-18T09:17:34;12.50;99.90
25923;DHT22;13725;51.170;4.442;2023-02-18T09:20:00;12.60;99.90
25923;DHT22;13725;51.170;4.442;2023-02-18T09:22:25;12.60;99.90
25923;DHT22;13725;51.170;4.442;2023-02-18T09:24:51;12.70;99.90
25923;DHT22;13725;51.170;4.442;2023-02-18T09:27:17;12.60;99.90
25923;DHT22;13725;51.170;4.442;2023-02-18T09:29:43;12.60;99.90
25923;DHT22;13725;51.170;4.442;2023-02-18T09:32:09;12.60;99.90
25923;DHT22;13725;51.170;4.442;2023-02-18T09:34:37;12.50;99.90
25923;DHT22;13725;51.170;4.442;2023-02-18T09:37:03;12.50;99.90
25923;DHT22;13725;51.170;4.442;2023-02-18T09:39:29;12.40;99.90
25923;DHT22;13725;51.170;4.442;2023-02-18T09:42:07;12.30;99.90
25923;DHT22;13725;51.170;4.442;2023-02-18T09:44:45;12.20;99.90
25923;DHT22;13725;51.170;4.442;2023-02-18T09:47:18;12.20;99.90
25923;DHT22;13725;51.170;4.442;2023-02-18T09:49:51;12.10;99.90
25923;DHT22;13725;51.170;4.442;2023-02-18T09:52:26;12.20;99.90
25923;DHT22;13725;51.170;4.442;2023-02-18T09:54:53;12.10;99.90
25923;DHT22;13725;51.170;4.442;2023-02-18T09:57:29;12.00;99.90
25923;DHT22;13725;51.170;4.442;2023-02-18T10:00:44;12.00;99.90
25923;DHT22;13725;51.170;4.442;2023-02-18T10:02:58;12.10;99.90
25923;DHT22;13725;51.170;4.442;2023-02-18T10:05:28;12.20;99.90
25923;DHT22;13725;51.170;4.442;2023-02-18T10:08:05;12.30;99.90
25923;DHT22;13725;51.170;4.442;2023-02-18T10:13:00;12.40;99.90
25923;DHT22;13725;51.170;4.442;2023-02-18T10:15:29;12.40;99.90
25923;DHT22;13725;51.170;4.442;2023-02-18T10:17:56;12.50;99.90
25923;DHT22;13725;51.170;4.442;2023-02-18T10:20:27;12.50;99.90
25923;DHT22;13725;51.170;4.442;2023-02-18T10:22:54;12.60;99.90
25923;DHT22;13725;51.170;4.442;2023-02-18T10:25:23;12.60;99.90
25923;DHT22;13725;51.170;4.442;2023-02-18T10:27:51;12.60;99.90
25923;DHT22;13725;51.170;4.442;2023-02-18T10:30:39;12.60;99.90
25923;DHT22;13725;51.170;4.442;2023-02-18T10:47:32;12.70;99.90
25923;DHT22;13725;51.170;4.442;2023-02-18T10:50:51;12.60;99.90
25923;DHT22;13725;51.170;4.442;2023-02-18T10:55:51;12.60;99.90
25923;DHT22;13725;51.170;4.442;2023-02-18T10:58:32;12.50;99.90
25923;DHT22;13725;51.170;4.442;2023-02-18T11:01:02;12.60;99.90
25923;DHT22;13725;51.170;4.442;2023-02-18T11:03:44;12.50;99.90
25923;DHT22;13725;51.170;4.442;2023-02-18T11:08:45;12.60;99.90
25923;DHT22;13725;51.170;4.442;2023-02-18T11:11:19;12.60;99.90
25923;DHT22;13725;51.170;4.442;2023-02-18T11:13:56;12.60;99.90
25923;DHT22;13725;51.170;4.442;2023-02-18T11:16:24;12.70;99.90
25923;DHT22;13725;51.170;4.442;2023-02-18T11:19:00;12.80;99.90
25923;DHT22;13725;51.170;4.442;2023-02-18T11:21:34;12.70;99.90
25923;DHT22;13725;51.170;4.442;2023-02-18T11:24:15;12.60;99.90
25923;DHT22;13725;51.170;4.442;2023-02-18T11:26:41;12.80;99.90
25923;DHT22;13725;51.170;4.442;2023-02-18T11:29:21;12.80;99.90
25923;DHT22;13725;51.170;4.442;2023-02-18T11:31:50;12.80;99.90
25923;DHT22;13725;51.170;4.442;2023-02-18T11:34:22;12.80;99.90
25923;DHT22;13725;51.170;4.442;2023-02-18T11:36:49;12.70;99.90
25923;DHT22;13725;51.170;4.442;2023-02-18T11:39:26;12.70;99.90
25923;DHT22;13725;51.170;4.442;2023-02-18T11:41:56;12.60;99.90
25923;DHT22;13725;51.170;4.442;2023-02-18T11:44:34;12.50;99.90
25923;DHT22;13725;51.170;4.442;2023-02-18T11:47:20;12.50;99.90
25923;DHT22;13725;51.170;4.442;2023-02-18T11:52:41;12.60;99.90
25923;DHT22;13725;51.170;4.442;2023-02-18T11:55:28;12.60;99.90
25923;DHT22;13725;51.170;4.442;2023-02-18T11:58:02;12.50;99.90
25923;DHT22;13725;51.170;4.442;2023-02-18T12:00:41;12.60;99.90
25923;DHT22;13725;51.170;4.442;2023-02-18T12:06:17;12.60;99.90
25923;DHT22;13725;51.170;4.442;2023-02-18T12:08:58;12.60;99.90
25923;DHT22;13725;51.170;4.442;2023-02-18T12:11:35;12.70;99.90
25923;DHT22;13725;51.170;4.442;2023-02-18T12:14:10;12.70;99.90
25923;DHT22;13725;51.170;4.442;2023-02-18T12:22:32;12.60;99.90
25923;DHT22;13725;51.170;4.442;2023-02-18T12:25:31;12.80;99.90
25923;DHT22;13725;51.170;4.442;2023-02-18T12:33:57;12.90;99.90
25923;DHT22;13725;51.170;4.442;2023-02-18T13:04:35;12.90;99.90
25923;DHT22;13725;51.170;4.442;2023-02-18T13:13:08;13.00;99.90
25923;DHT22;13725;51.170;4.442;2023-02-18T13:15:39;12.90;99.90
25923;DHT22;13725;51.170;4.442;2023-02-18T13:18:23;13.00;99.90
25923;DHT22;13725;51.170;4.442;2023-02-18T13:21:03;13.00;99.90
25923;DHT22;13725;51.170;4.442;2023-02-18T13:23:34;12.90;99.90
25923;DHT22;13725;51.170;4.442;2023-02-18T13:26:02;13.00;99.90
25923;DHT22;13725;51.170;4.442;2023-02-18T13:28:54;12.80;99.90
25923;DHT22;13725;51.170;4.442;2023-02-18T13:37:14;12.80;99.90
25923;DHT22;13725;51.170;4.442;2023-02-18T13:39:48;13.00;99.90
25923;DHT22;13725;51.170;4.442;2023-02-18T13:47:41;13.90;99.90
25923;DHT22;13725;51.170;4.442;2023-02-18T13:55:25;14.20;99.90
25923;DHT22;13725;51.170;4.442;2023-02-18T13:57:53;14.30;99.90
25923;DHT22;13725;51.170;4.442;2023-02-18T14:00:35;14.40;99.90
25923;DHT22;13725;51.170;4.442;2023-02-18T14:03:27;14.20;99.90
25923;DHT22;13725;51.170;4.442;2023-02-18T14:05:57;14.30;99.90
25923;DHT22;13725;51.170;4.442;2023-02-18T14:08:35;14.10;99.90
25923;DHT22;13725;51.170;4.442;2023-02-18T14:11:22;14.00;99.90
25923;DHT22;13725;51.170;4.442;2023-02-18T14:14:30;14.00;99.90
25923;DHT22;13725;51.170;4.442;2023-02-18T14:22:33;14.10;99.90
25923;DHT22;13725;51.170;4.442;2023-02-18T14:27:34;14.20;99.90
25923;DHT22;13725;51.170;4.442;2023-02-18T14:30:13;14.20;99.90
25923;DHT22;13725;51.170;4.442;2023-02-18T14:32:40;14.20;99.90
25923;DHT22;13725;51.170;4.442;2023-02-18T14:40:57;13.80;99.90
25923;DHT22;13725;51.170;4.442;2023-02-18T14:46:19;13.70;99.90
25923;DHT22;13725;51.170;4.442;2023-02-18T14:51:34;13.70;99.90
25923;DHT22;13725;51.170;4.442;2023-02-18T14:54:17;13.60;99.90
25923;DHT22;13725;51.170;4.442;2023-02-18T14:59:17;13.70;99.90
25923;DHT22;13725;51.170;4.442;2023-02-18T15:01:45;13.60;99.90
25923;DHT22;13725;51.170;4.442;2023-02-18T15:04:13;13.60;99.90
25923;DHT22;13725;51.170;4.442;2023-02-18T15:06:40;13.50;99.90
25923;DHT22;13725;51.170;4.442;2023-02-18T15:09:20;13.50;99.90
25923;DHT22;13725;51.170;4.442;2023-02-18T15:11:54;13.50;99.90
25923;DHT22;13725;51.170;4.442;2023-02-18T15:14:24;13.40;99.90
25923;DHT22;13725;51.170;4.442;2023-02-18T15:16:51;13.20;99.90
25923;DHT22;13725;51.170;4.442;2023-02-18T15:19:24;12.90;99.90
25923;DHT22;13725;51.170;4.442;2023-02-18T15:21:54;12.90;99.90
25923;DHT22;13725;51.170;4.442;2023-02-18T15:24:29;12.90;99.90
25923;DHT22;13725;51.170;4.442;2023-02-18T15:26:59;12.80;99.90
25923;DHT22;13725;51.170;4.442;2023-02-18T15:29:27;12.80;99.90
25923;DHT22;13725;51.170;4.442;2023-02-18T15:31:55;12.80;99.90
25923;DHT22;13725;51.170;4.442;2023-02-18T15:36:54;12.80;99.90
25923;DHT22;13725;51.170;4.442;2023-02-18T15:39:21;12.80;99.90
25923;DHT22;13725;51.170;4.442;2023-02-18T15:41:55;12.90;99.90
25923;DHT22;13725;51.170;4.442;2023-02-18T15:44:23;13.00;99.90
25923;DHT22;13725;51.170;4.442;2023-02-18T15:46:50;13.20;99.90
25923;DHT22;13725;51.170;4.442;2023-02-18T15:49:20;13.30;99.90
25923;DHT22;13725;51.170;4.442;2023-02-18T15:51:47;13.40;99.90
25923;DHT22;13725;51.170;4.442;2023-02-18T15:54:16;13.40;99.90
25923;DHT22;13725;51.170;4.442;2023-02-18T15:56:45;13.40;99.90
25923;DHT22;13725;51.170;4.442;2023-02-18T15:59:33;13.20;99.90
25923;DHT22;13725;51.170;4.442;2023-02-18T16:02:22;13.30;99.90
25923;DHT22;13725;51.170;4.442;2023-02-18T16:04:54;13.00;99.90
25923;DHT22;13725;51.170;4.442;2023-02-18T16:07:27;12.80;99.90
25923;DHT22;13725;51.170;4.442;2023-02-18T16:12:33;12.70;99.90
25923;DHT22;13725;51.170;4.442;2023-02-18T16:14:59;12.70;99.90
25923;DHT22;13725;51.170;4.442;2023-02-18T16:17:27;12.80;99.90
25923;DHT22;13725;51.170;4.442;2023-02-18T16:19:59;12.80;99.90
25923;DHT22;13725;51.170;4.442;2023-02-18T16:25:07;12.70;99.90
25923;DHT22;13725;51.170;4.442;2023-02-18T16:27:36;12.70;99.90
25923;DHT22;13725;51.170;4.442;2023-02-18T16:30:13;12.80;99.90
25923;DHT22;13725;51.170;4.442;2023-02-18T16:32:40;12.70;99.90
25923;DHT22;13725;51.170;4.442;2023-02-18T16:35:06;12.80;99.90
25923;DHT22;13725;51.170;4.442;2023-02-18T16:37:31;12.70;99.90
25923;DHT22;13725;51.170;4.442;2023-02-18T16:40:27;12.70;99.90
25923;DHT22;13725;51.170;4.442;2023-02-18T16:42:51;12.70;99.90
25923;DHT22;13725;51.170;4.442;2023-02-18T16:45:17;12.70;99.90
25923;DHT22;13725;51.170;4.442;2023-02-18T16:47:45;12.70;99.90
25923;DHT22;13725;51.170;4.442;2023-02-18T16:50:20;12.80;99.90
25923;DHT22;13725;51.170;4.442;2023-02-18T16:52:47;12.70;99.90
25923;DHT22;13725;51.170;4.442;2023-02-18T16:55:17;12.70;99.90
25923;DHT22;13725;51.170;4.442;2023-02-18T16:57:44;12.50;99.90
25923;DHT22;13725;51.170;4.442;2023-02-18T17:00:10;12.60;99.90
25923;DHT22;13725;51.170;4.442;2023-02-18T17:02:36;12.50;99.90
25923;DHT22;13725;51.170;4.442;2023-02-18T17:05:01;12.50;99.90
25923;DHT22;13725;51.170;4.442;2023-02-18T17:07:27;12.50;99.90
25923;DHT22;13725;51.170;4.442;2023-02-18T17:09:54;12.60;99.90
25923;DHT22;13725;51.170;4.442;2023-02-18T17:12:19;12.50;99.90
25923;DHT22;13725;51.170;4.442;2023-02-18T17:14:45;12.40;99.90
25923;DHT22;13725;51.170;4.442;2023-02-18T17:17:11;12.40;99.90
25923;DHT22;13725;51.170;4.442;2023-02-18T17:19:42;12.40;99.90
25923;DHT22;13725;51.170;4.442;2023-02-18T17:22:10;12.30;99.90
25923;DHT22;13725;51.170;4.442;2023-02-18T17:24:37;12.20;99.90
25923;DHT22;13725;51.170;4.442;2023-02-18T17:27:03;12.20;99.90
25923;DHT22;13725;51.170;4.442;2023-02-18T17:29:29;12.10;99.90
25923;DHT22;13725;51.170;4.442;2023-02-18T17:31:55;12.20;99.90
25923;DHT22;13725;51.170;4.442;2023-02-18T17:34:27;12.10;99.90
25923;DHT22;13725;51.170;4.442;2023-02-18T17:36:53;12.20;99.90
25923;DHT22;13725;51.170;4.442;2023-02-18T17:39:19;12.20;99.90
25923;DHT22;13725;51.170;4.442;2023-02-18T17:41:45;12.20;99.90
25923;DHT22;13725;51.170;4.442;2023-02-18T17:44:16;12.10;99.90
25923;DHT22;13725;51.170;4.442;2023-02-18T17:46:42;12.00;99.90
25923;DHT22;13725;51.170;4.442;2023-02-18T17:49:07;12.00;99.90
25923;DHT22;13725;51.170;4.442;2023-02-18T17:51:33;12.10;99.90
25923;DHT22;13725;51.170;4.442;2023-02-18T17:54:01;12.00;99.90
25923;DHT22;13725;51.170;4.442;2023-02-18T17:56:28;12.00;99.90
25923;DHT22;13725;51.170;4.442;2023-02-18T17:58:54;12.00;99.90
25923;DHT22;13725;51.170;4.442;2023-02-18T18:01:20;12.00;99.90
25923;DHT22;13725;51.170;4.442;2023-02-18T18:03:47;12.00;99.90
25923;DHT22;13725;51.170;4.442;2023-02-18T18:06:18;12.10;99.90
25923;DHT22;13725;51.170;4.442;2023-02-18T18:08:45;12.00;99.90
25923;DHT22;13725;51.170;4.442;2023-02-18T18:11:19;12.00;99.90
25923;DHT22;13725;51.170;4.442;2023-02-18T18:13:45;12.00;99.90
25923;DHT22;13725;51.170;4.442;2023-02-18T18:16:13;12.00;99.90
25923;DHT22;13725;51.170;4.442;2023-02-18T18:18:39;12.00;99.90
25923;DHT22;13725;51.170;4.442;2023-02-18T18:21:05;12.00;99.90
25923;DHT22;13725;51.170;4.442;2023-02-18T18:23:31;12.10;99.90
25923;DHT22;13725;51.170;4.442;2023-02-18T18:25:59;12.10;99.90